Weather at Almirante Marco Andres Zar Airport

Public forecast

Using degrees Celsius for public forecast. Weather courtesy of forecast.io.

Current aviation weather report (METAR) for Almirante Marco Andres Zar Airport

Report is more than 6 hours old.

2022/11/13 04:39 (retrieved 2 years ago)

SAVT 130439Z 04004KT 9999 FEW010 11/10 Q1012

Aviation forecast (TAF) for Almirante Marco Andres Zar Airport

Forecast is more than 12 hours old.

2023/02/22 18:01 (retrieved 1 year ago)

TAF SAVT 221700Z 2218/2318 27015G30KT CAVOK TX32/2220Z TN14/2310Z BECMG 2300/2302 25015KT